Time;durP1;ratioP1;P1;durP2;ratioP2;P2;SDS_P1;SDS_P2;PMS_P1;PMS_P2;Temp;Humidity;BMP_temperature;BMP_pressure;BME280_temperature;BME280_humidity;BME280_pressure;Samples;Min_cycle;Max_cycle;Signal;HPM_P1;HPM_P2
2023/10/28 00:00:01;;;;;;;3.30;3.20;;;11.70;99.90;;;;;;10541627;28;20614;-78
2023/10/28 00:05:25;;;;;;;3.40;3.30;;;11.80;99.90;;;;;;10541649;28;20219;-78
2023/10/28 00:10:48;;;;;;;3.20;3.10;;;11.90;99.90;;;;;;10542842;28;20341;-78
2023/10/28 00:16:10;;;;;;;3.27;3.07;;;12.00;99.90;;;;;;10536355;28;20214;-78
2023/10/28 00:21:34;;;;;;;2.90;2.80;;;12.00;99.90;;;;;;10537493;28;20219;-77
2023/10/28 00:26:56;;;;;;;2.63;2.57;;;12.00;99.90;;;;;;10521483;28;20224;-78
2023/10/28 00:32:22;;;;;;;2.73;2.63;;;12.00;99.90;;;;;;10523123;28;20215;-78
2023/10/28 00:37:46;;;;;;;2.70;2.60;;;12.10;99.90;;;;;;10538267;28;20195;-78
2023/10/28 00:43:10;;;;;;;2.70;2.50;;;12.10;99.90;;;;;;10539205;28;20225;-78
2023/10/28 00:48:32;;;;;;;2.53;2.43;;;12.10;99.90;;;;;;10517232;28;20228;-78
2023/10/28 00:53:56;;;;;;;2.93;2.73;;;12.10;99.90;;;;;;10484713;28;20724;-78
2023/10/28 00:59:18;;;;;;;2.47;2.27;;;12.10;99.90;;;;;;10533775;28;20204;-78
2023/10/28 01:04:41;;;;;;;2.70;2.20;;;12.10;99.90;;;;;;10523260;28;20233;-78
2023/10/28 01:10:05;;;;;;;2.60;2.40;;;12.00;99.90;;;;;;10528925;28;20220;-78
2023/10/28 01:15:27;;;;;;;3.00;2.67;;;12.00;99.90;;;;;;10534744;28;20188;-78
2023/10/28 01:20:50;;;;;;;2.77;2.57;;;12.00;99.90;;;;;;10537415;28;20228;-78
2023/10/28 01:26:13;;;;;;;2.73;2.63;;;12.10;99.90;;;;;;10536322;28;20227;-78
2023/10/28 01:31:35;;;;;;;2.80;2.60;;;12.10;99.90;;;;;;10537911;28;20693;-78
2023/10/28 01:36:58;;;;;;;2.50;2.40;;;12.10;99.90;;;;;;10522391;28;20199;-77
2023/10/28 01:42:22;;;;;;;3.90;2.60;;;12.10;99.90;;;;;;10521332;28;20216;-78
2023/10/28 01:47:45;;;;;;;3.27;2.17;;;12.10;99.90;;;;;;10534003;28;20243;-78
2023/10/28 01:53:07;;;;;;;3.90;2.90;;;12.20;99.90;;;;;;10511432;28;20228;-78
2023/10/28 01:58:32;;;;;;;2.60;2.50;;;12.20;99.90;;;;;;10518465;28;20192;-77
2023/10/28 02:03:54;;;;;;;2.83;2.63;;;12.20;99.90;;;;;;10522815;28;20235;-78
2023/10/28 02:09:17;;;;;;;5.23;3.00;;;12.20;99.90;;;;;;10528670;28;20231;-78
2023/10/28 02:14:43;;;;;;;2.77;2.53;;;12.20;99.90;;;;;;10541709;28;20277;-78
2023/10/28 02:20:06;;;;;;;2.40;2.30;;;12.20;99.90;;;;;;10483736;28;20350;-78
2023/10/28 02:25:29;;;;;;;3.10;2.67;;;12.20;99.90;;;;;;10523448;28;20949;-78
2023/10/28 02:30:52;;;;;;;2.70;2.60;;;12.30;99.90;;;;;;10533816;28;20224;-78
2023/10/28 02:36:15;;;;;;;2.77;2.57;;;12.30;99.90;;;;;;10490495;28;20283;-78
2023/10/28 02:41:38;;;;;;;2.93;2.73;;;12.40;99.90;;;;;;10502376;28;20239;-78
2023/10/28 02:47:02;;;;;;;2.70;2.50;;;12.30;99.90;;;;;;10521820;28;20228;-78
2023/10/28 02:52:24;;;;;;;3.07;2.80;;;12.30;99.90;;;;;;10522241;28;20213;-78
2023/10/28 02:57:47;;;;;;;3.17;2.87;;;12.30;99.90;;;;;;10521103;28;20591;-78
2023/10/28 03:03:10;;;;;;;2.80;2.60;;;12.30;99.90;;;;;;10537611;28;20696;-78
2023/10/28 03:08:33;;;;;;;3.17;2.90;;;12.30;99.90;;;;;;10535673;28;20298;-78
2023/10/28 03:13:55;;;;;;;4.93;3.23;;;12.20;99.90;;;;;;10526923;28;20224;-78
2023/10/28 03:19:18;;;;;;;3.53;3.10;;;12.20;99.90;;;;;;10513043;28;20200;-78
2023/10/28 03:24:41;;;;;;;5.47;3.10;;;12.20;99.90;;;;;;10516724;28;20208;-78
2023/10/28 03:30:03;;;;;;;3.43;3.00;;;12.20;99.90;;;;;;10532847;28;20621;-78
2023/10/28 03:35:29;;;;;;;3.97;3.10;;;12.20;99.90;;;;;;10525792;28;20603;-78
2023/10/28 03:40:52;;;;;;;2.80;2.70;;;12.20;99.90;;;;;;10498597;28;20730;-78
2023/10/28 03:46:18;;;;;;;3.70;3.30;;;12.20;99.90;;;;;;10534407;28;20231;-78
2023/10/28 03:51:44;;;;;;;4.00;2.90;;;12.10;99.90;;;;;;10530698;28;20209;-78
2023/10/28 03:57:06;;;;;;;2.63;2.43;;;12.20;99.90;;;;;;10536676;28;20307;-78
2023/10/28 04:02:28;;;;;;;2.93;2.70;;;12.20;99.90;;;;;;10543116;28;20251;-78
2023/10/28 04:07:52;;;;;;;6.77;2.83;;;12.20;99.90;;;;;;10519529;28;20275;-80
2023/10/28 04:13:14;;;;;;;4.20;2.80;;;12.10;99.90;;;;;;10530811;28;20227;-80
2023/10/28 04:18:36;;;;;;;4.67;3.20;;;12.20;99.90;;;;;;10539940;28;20203;-80
2023/10/28 04:24:01;;;;;;;5.13;2.80;;;12.10;99.90;;;;;;10537583;28;20232;-78
2023/10/28 04:29:23;;;;;;;5.40;2.83;;;12.10;99.90;;;;;;10518512;28;20217;-78
2023/10/28 04:34:45;;;;;;;2.73;2.50;;;12.20;99.90;;;;;;10538006;28;20196;-78
2023/10/28 04:40:10;;;;;;;3.17;2.87;;;12.20;99.90;;;;;;10539066;28;20856;-78
2023/10/28 04:45:32;;;;;;;3.73;2.53;;;12.10;99.90;;;;;;10537196;28;20220;-78
2023/10/28 04:50:54;;;;;;;4.40;2.90;;;12.20;99.90;;;;;;10538987;28;20647;-78
2023/10/28 04:56:18;;;;;;;3.13;2.70;;;12.20;99.90;;;;;;10538553;28;20222;-78
2023/10/28 05:01:40;;;;;;;2.10;2.00;;;12.10;99.90;;;;;;10538628;28;20223;-78
2023/10/28 05:07:04;;;;;;;5.93;2.23;;;12.10;99.90;;;;;;10538568;28;20510;-77
2023/10/28 05:12:28;;;;;;;2.97;2.10;;;12.10;99.90;;;;;;10522619;28;20266;-78
2023/10/28 05:17:50;;;;;;;2.40;2.30;;;12.00;99.90;;;;;;10529837;28;20189;-78
2023/10/28 05:23:13;;;;;;;2.60;2.40;;;12.00;99.90;;;;;;10505524;28;20732;-78
2023/10/28 05:28:37;;;;;;;2.77;2.57;;;12.00;99.90;;;;;;10526577;28;20596;-78
2023/10/28 05:33:59;;;;;;;2.70;2.50;;;12.00;99.90;;;;;;10528656;28;20697;-78
2023/10/28 05:39:22;;;;;;;6.63;2.80;;;12.00;99.90;;;;;;10537584;28;20200;-78
2023/10/28 05:44:45;;;;;;;2.80;2.60;;;12.00;99.90;;;;;;10535194;28;20197;-78
2023/10/28 05:50:08;;;;;;;2.53;2.30;;;11.90;99.90;;;;;;10520002;28;20224;-78
2023/10/28 05:55:30;;;;;;;3.73;2.77;;;12.00;99.90;;;;;;10520705;28;20217;-78
2023/10/28 06:00:55;;;;;;;2.57;1.90;;;11.90;99.90;;;;;;10508667;28;20345;-78
2023/10/28 06:06:17;;;;;;;3.40;3.07;;;11.90;99.90;;;;;;10534989;28;20223;-78
2023/10/28 06:11:40;;;;;;;2.90;2.80;;;12.00;99.90;;;;;;10538997;28;20224;-78
2023/10/28 06:17:04;;;;;;;4.07;3.60;;;12.00;99.90;;;;;;10539998;28;20196;-78
2023/10/28 06:22:27;;;;;;;9.50;4.27;;;12.00;99.90;;;;;;10513770;28;20236;-78
2023/10/28 06:27:49;;;;;;;5.57;3.10;;;12.10;99.90;;;;;;10532670;28;20215;-78
2023/10/28 06:33:13;;;;;;;3.90;2.73;;;12.10;99.90;;;;;;10485768;28;20227;-78
2023/10/28 06:38:35;;;;;;;3.33;2.20;;;12.10;99.90;;;;;;10533240;28;20249;-78
2023/10/28 06:44:02;;;;;;;3.10;2.60;;;12.20;99.90;;;;;;10537911;28;20243;-79
2023/10/28 06:49:26;;;;;;;3.00;2.80;;;12.20;99.90;;;;;;10501758;28;20595;-78
2023/10/28 06:54:48;;;;;;;4.20;2.43;;;12.30;99.90;;;;;;10486062;28;20200;-78
2023/10/28 07:00:13;;;;;;;3.40;2.50;;;12.30;99.90;;;;;;10537011;28;20209;-79
2023/10/28 07:05:36;;;;;;;5.37;2.30;;;12.30;99.90;;;;;;10505627;28;20192;-78
2023/10/28 07:10:59;;;;;;;2.23;2.10;;;12.30;99.90;;;;;;10530485;28;20213;-79
2023/10/28 07:16:22;;;;;;;3.77;3.47;;;12.30;99.90;;;;;;10510703;28;20722;-79
2023/10/28 07:21:45;;;;;;;5.07;2.63;;;12.50;99.90;;;;;;10526471;28;20576;-78
2023/10/28 07:27:07;;;;;;;3.00;2.47;;;12.60;99.90;;;;;;10521700;28;20231;-79
2023/10/28 07:32:30;;;;;;;2.63;2.00;;;12.70;99.90;;;;;;10520561;28;20212;-79
2023/10/28 07:37:54;;;;;;;2.33;2.10;;;12.80;99.90;;;;;;10518571;28;20197;-79
2023/10/28 07:43:18;;;;;;;2.60;2.40;;;13.00;99.90;;;;;;10519507;28;20212;-79
2023/10/28 07:48:41;;;;;;;4.13;2.50;;;13.00;99.90;;;;;;10509886;28;20309;-79
2023/10/28 07:54:04;;;;;;;2.40;2.20;;;13.10;99.90;;;;;;10523497;28;20228;-76
2023/10/28 07:59:27;;;;;;;2.60;2.40;;;13.10;99.90;;;;;;10501507;28;20205;-79
2023/10/28 08:04:53;;;;;;;3.80;2.17;;;13.20;99.90;;;;;;10529587;28;20249;-77
2023/10/28 08:10:22;;;;;;;2.50;2.07;;;13.10;99.90;;;;;;10495025;28;20248;-76
2023/10/28 08:15:44;;;;;;;3.13;2.17;;;13.10;99.90;;;;;;10533205;28;20311;-78
2023/10/28 08:21:06;;;;;;;2.50;1.70;;;13.20;99.90;;;;;;10502732;28;20229;-79
2023/10/28 08:26:30;;;;;;;2.43;2.00;;;13.30;99.90;;;;;;10539665;28;20201;-78
2023/10/28 08:31:54;;;;;;;3.97;2.23;;;13.30;99.90;;;;;;10507230;28;20219;-78
2023/10/28 08:37:18;;;;;;;2.30;2.03;;;13.50;99.90;;;;;;10510368;28;20193;-78
2023/10/28 08:42:42;;;;;;;2.03;1.83;;;13.60;99.90;;;;;;10526710;28;20299;-78
2023/10/28 08:48:04;;;;;;;2.40;1.87;;;13.70;99.90;;;;;;10503476;28;20217;-79
2023/10/28 08:53:28;;;;;;;2.40;2.20;;;13.80;99.90;;;;;;10523577;28;20601;-79
2023/10/28 08:58:52;;;;;;;2.13;1.93;;;13.90;99.90;;;;;;10532971;28;20195;-78
2023/10/28 09:04:15;;;;;;;3.83;1.77;;;13.80;99.90;;;;;;10522731;28;20274;-78
2023/10/28 09:09:39;;;;;;;3.70;1.90;;;13.90;99.90;;;;;;10509943;28;20361;-78
2023/10/28 09:15:03;;;;;;;6.47;3.30;;;13.80;99.90;;;;;;10528985;28;20228;-79
2023/10/28 09:20:26;;;;;;;5.07;1.83;;;13.90;99.90;;;;;;10517058;28;20313;-78
2023/10/28 09:25:48;;;;;;;4.40;1.50;;;13.90;99.90;;;;;;10523883;28;20203;-77
2023/10/28 09:31:11;;;;;;;1.70;1.60;;;14.10;99.90;;;;;;10520731;28;20219;-78
2023/10/28 09:36:34;;;;;;;3.07;1.60;;;14.10;99.90;;;;;;10527338;28;20607;-79
2023/10/28 09:41:57;;;;;;;4.17;1.97;;;14.20;99.90;;;;;;10529248;28;20222;-78
2023/10/28 09:47:23;;;;;;;6.20;1.70;;;14.20;99.90;;;;;;10500132;28;20217;-78
2023/10/28 09:52:51;;;;;;;3.20;2.43;;;14.20;99.90;;;;;;10503845;28;20224;-78
2023/10/28 09:58:21;;;;;;;3.90;1.87;;;14.40;99.90;;;;;;10534758;28;20185;-80
2023/10/28 10:04:04;;;;;;;3.23;1.77;;;14.60;99.90;;;;;;10491000;28;20847;-79
2023/10/28 10:09:26;;;;;;;7.80;2.60;;;14.80;99.90;;;;;;10516713;28;20223;-78
2023/10/28 10:14:48;;;;;;;2.20;1.43;;;14.90;99.90;;;;;;10509767;28;20208;-79
2023/10/28 10:20:12;;;;;;;4.13;1.67;;;15.00;99.90;;;;;;10518106;28;20235;-79
2023/10/28 10:25:39;;;;;;;3.27;1.60;;;15.00;99.90;;;;;;10530586;28;20564;-77
2023/10/28 10:31:09;;;;;;;4.70;2.00;;;15.00;99.90;;;;;;10511132;28;20215;-79
2023/10/28 10:36:36;;;;;;;3.33;2.10;;;14.90;99.90;;;;;;10526759;28;20270;-78
2023/10/28 10:42:03;;;;;;;2.60;1.63;;;15.00;99.90;;;;;;10510111;28;20204;-79
2023/10/28 10:47:27;;;;;;;2.30;1.40;;;15.10;99.90;;;;;;10505249;28;20706;-79
2023/10/28 10:52:53;;;;;;;2.20;1.60;;;15.30;99.90;;;;;;10500287;28;20581;-79
2023/10/28 10:58:15;;;;;;;3.97;1.50;;;15.40;99.90;;;;;;10539886;28;20579;-80
2023/10/28 11:03:39;;;;;;;4.20;1.37;;;15.60;99.90;;;;;;10501282;28;20558;-80
2023/10/28 11:09:04;;;;;;;1.83;1.73;;;15.70;99.90;;;;;;10503047;28;20219;-80
2023/10/28 11:14:26;;;;;;;3.10;1.80;;;15.90;99.90;;;;;;10537842;28;20246;-80
2023/10/28 11:19:49;;;;;;;2.20;1.43;;;15.80;99.90;;;;;;10502644;28;20676;-78
2023/10/28 11:25:13;;;;;;;5.57;2.93;;;15.70;99.90;;;;;;10512527;28;20694;-78
2023/10/28 11:30:35;;;;;;;2.63;1.70;;;15.60;99.90;;;;;;10503533;28;20235;-79
2023/10/28 11:35:58;;;;;;;5.90;3.10;;;15.60;99.90;;;;;;10522722;28;20200;-77
2023/10/28 11:41:23;;;;;;;3.90;1.73;;;15.60;99.90;;;;;;10511467;28;20239;-78
2023/10/28 11:46:46;;;;;;;2.47;2.00;;;15.60;99.90;;;;;;10504964;28;20700;-79
2023/10/28 11:52:11;;;;;;;5.77;1.70;;;15.60;99.90;;;;;;10518546;28;20220;-80
2023/10/28 11:57:35;;;;;;;2.60;1.73;;;15.50;99.90;;;;;;10521340;28;20250;-80
2023/10/28 12:02:59;;;;;;;5.77;2.20;;;15.60;99.90;;;;;;10534171;28;20220;-79
2023/10/28 12:08:22;;;;;;;2.10;1.03;;;15.60;99.90;;;;;;10518409;28;20213;-79
2023/10/28 12:13:45;;;;;;;4.50;2.30;;;15.60;99.90;;;;;;10538667;28;20300;-79
2023/10/28 12:19:08;;;;;;;2.50;1.87;;;15.60;99.90;;;;;;10498695;28;20208;-79
2023/10/28 12:24:33;;;;;;;3.37;2.10;;;15.60;99.90;;;;;;10528313;28;20246;-79
2023/10/28 12:29:56;;;;;;;3.03;2.00;;;15.50;99.90;;;;;;10506288;28;20604;-79
2023/10/28 12:35:19;;;;;;;2.97;2.00;;;15.60;99.90;;;;;;10506747;28;20211;-79
2023/10/28 12:40:41;;;;;;;2.63;2.13;;;15.70;99.90;;;;;;10544401;28;20678;-79
2023/10/28 12:46:05;;;;;;;4.80;2.20;;;15.80;99.90;;;;;;10510028;28;20200;-79
2023/10/28 12:51:28;;;;;;;3.03;2.40;;;15.80;99.90;;;;;;10538910;28;20240;-79
2023/10/28 12:56:51;;;;;;;5.33;2.43;;;15.80;99.90;;;;;;10517170;28;20224;-79
2023/10/28 13:02:15;;;;;;;3.47;2.50;;;15.70;99.90;;;;;;10530443;28;20246;-79
2023/10/28 13:07:37;;;;;;;3.00;1.90;;;15.60;99.90;;;;;;10519635;28;20220;-79
2023/10/28 13:12:59;;;;;;;2.40;1.70;;;15.50;99.90;;;;;;10517929;28;20209;-79
2023/10/28 13:18:23;;;;;;;3.67;1.80;;;15.60;99.90;;;;;;10526139;28;20192;-79
2023/10/28 13:23:45;;;;;;;3.87;2.10;;;15.70;99.90;;;;;;10525107;28;20220;-78
2023/10/28 13:29:08;;;;;;;6.10;4.70;;;15.80;99.90;;;;;;10511407;28;20694;-79
2023/10/28 13:34:32;;;;;;;4.43;1.97;;;15.70;99.90;;;;;;10514301;28;20237;-79
2023/10/28 13:39:54;;;;;;;3.20;1.97;;;15.60;99.90;;;;;;10532744;28;20192;-78
2023/10/28 13:45:16;;;;;;;7.73;2.70;;;15.50;99.90;;;;;;10492738;28;20204;-78
2023/10/28 13:50:40;;;;;;;4.10;1.70;;;15.40;99.90;;;;;;10533336;28;20743;-79
2023/10/28 13:56:02;;;;;;;4.20;1.90;;;15.40;99.90;;;;;;10474580;28;20567;-79
2023/10/28 14:01:24;;;;;;;5.80;2.20;;;15.30;99.90;;;;;;10539431;28;20599;-79
2023/10/28 14:06:48;;;;;;;4.20;2.27;;;15.30;99.90;;;;;;10499815;28;20193;-79
2023/10/28 14:12:10;;;;;;;4.23;1.80;;;15.30;99.90;;;;;;10534893;28;20205;-79
2023/10/28 14:17:32;;;;;;;5.03;2.27;;;15.30;99.90;;;;;;10506494;28;20270;-79
2023/10/28 14:22:55;;;;;;;5.10;2.20;;;15.40;99.90;;;;;;10535504;28;20225;-79
2023/10/28 14:28:18;;;;;;;2.10;1.90;;;15.40;99.90;;;;;;10509353;28;20218;-79
2023/10/28 14:33:40;;;;;;;5.70;2.37;;;15.30;99.90;;;;;;10528821;28;20224;-79
2023/10/28 14:39:04;;;;;;;4.37;2.20;;;15.20;99.90;;;;;;10516035;28;20242;-79
2023/10/28 14:44:27;;;;;;;6.37;3.10;;;15.10;99.90;;;;;;10522916;28;20300;-79
2023/10/28 14:49:49;;;;;;;5.43;3.63;;;15.00;99.90;;;;;;10520002;28;20212;-79
2023/10/28 14:55:13;;;;;;;5.33;2.90;;;14.90;99.90;;;;;;10517553;28;20248;-79
2023/10/28 15:00:35;;;;;;;7.80;2.97;;;14.80;99.90;;;;;;10524904;28;20221;-79
2023/10/28 15:05:58;;;;;;;7.20;2.50;;;14.80;99.90;;;;;;10515564;28;20627;-79
2023/10/28 15:11:22;;;;;;;5.57;3.40;;;14.70;99.90;;;;;;10529777;28;20611;-79
2023/10/28 15:16:48;;;;;;;4.97;2.70;;;14.70;99.90;;;;;;10491583;28;20227;-79
2023/10/28 15:22:10;;;;;;;4.33;2.60;;;14.60;99.90;;;;;;10532763;28;20224;-79
2023/10/28 15:27:33;;;;;;;3.30;3.00;;;14.60;99.90;;;;;;10511256;28;20211;-79
2023/10/28 15:32:55;;;;;;;6.70;5.00;;;14.50;99.90;;;;;;10554239;28;20816;-79
2023/10/28 15:38:18;;;;;;;3.73;2.77;;;14.50;99.90;;;;;;10514844;28;20288;-79
2023/10/28 15:43:41;;;;;;;4.60;3.57;;;14.50;99.90;;;;;;10549922;28;20688;-79
2023/10/28 15:49:03;;;;;;;6.20;3.90;;;14.40;99.90;;;;;;10518207;28;20215;-79
2023/10/28 15:54:26;;;;;;;3.43;3.10;;;14.40;99.90;;;;;;10546220;28;20220;-79
2023/10/28 15:59:49;;;;;;;6.23;4.03;;;14.40;99.90;;;;;;10520836;28;20201;-79
2023/10/28 16:05:11;;;;;;;6.43;3.50;;;14.40;99.90;;;;;;10540412;28;20204;-79
2023/10/28 16:10:33;;;;;;;6.00;3.83;;;14.40;99.90;;;;;;10530354;28;20231;-79
2023/10/28 16:15:57;;;;;;;5.77;3.50;;;14.40;99.90;;;;;;10543776;28;20201;-79
2023/10/28 16:21:19;;;;;;;4.60;3.87;;;14.40;99.90;;;;;;10545616;28;20224;-78
2023/10/28 16:26:46;;;;;;;6.40;4.60;;;14.40;99.90;;;;;;10514776;28;20200;-79
2023/10/28 16:32:10;;;;;;;7.60;4.33;;;14.40;99.90;;;;;;10520455;28;20703;-79
2023/10/28 16:37:32;;;;;;;7.43;4.23;;;14.40;99.90;;;;;;10550677;28;20189;-79
2023/10/28 16:42:54;;;;;;;5.27;4.23;;;14.40;99.90;;;;;;10513933;28;20232;-79
2023/10/28 16:48:18;;;;;;;3.97;3.57;;;14.30;99.90;;;;;;10533836;28;20274;-79
2023/10/28 16:53:41;;;;;;;5.87;4.50;;;14.40;99.90;;;;;;10508175;28;20221;-79
2023/10/28 16:59:04;;;;;;;8.53;5.20;;;14.40;99.90;;;;;;10541841;28;20204;-79
2023/10/28 17:04:28;;;;;;;10.27;6.20;;;14.40;99.90;;;;;;10504074;28;20305;-77
2023/10/28 17:09:51;;;;;;;6.67;5.60;;;14.40;99.90;;;;;;10500022;28;20231;-78
2023/10/28 17:15:14;;;;;;;7.50;4.60;;;14.40;99.90;;;;;;10534916;28;20204;-76
2023/10/28 17:20:38;;;;;;;5.60;4.40;;;14.40;99.90;;;;;;10498491;28;20220;-79
2023/10/28 17:26:00;;;;;;;4.50;4.20;;;14.50;99.90;;;;;;10530828;28;20202;-79
2023/10/28 17:31:22;;;;;;;5.87;4.57;;;14.50;99.90;;;;;;10511987;28;20227;-79
2023/10/28 17:36:46;;;;;;;5.30;3.97;;;14.50;99.90;;;;;;10525713;28;20207;-77
2023/10/28 17:42:09;;;;;;;11.23;9.83;;;14.50;99.90;;;;;;10513787;28;20227;-76
2023/10/28 17:47:31;;;;;;;5.57;5.07;;;14.40;99.90;;;;;;10519779;28;20688;-78
2023/10/28 17:52:55;;;;;;;7.80;5.67;;;14.50;99.90;;;;;;10516463;28;20228;-79
2023/10/28 17:58:18;;;;;;;8.80;6.60;;;14.40;99.90;;;;;;10490130;28;20200;-78
2023/10/28 18:03:40;;;;;;;9.07;5.90;;;14.40;99.90;;;;;;10524731;28;20243;-79
2023/10/28 18:09:03;;;;;;;5.17;4.70;;;14.30;99.90;;;;;;10511064;28;20223;-76
2023/10/28 18:14:26;;;;;;;5.87;4.27;;;14.30;99.90;;;;;;10530716;28;20266;-79
2023/10/28 18:19:48;;;;;;;6.13;4.40;;;14.30;99.90;;;;;;10506121;28;20586;-79
2023/10/28 18:25:11;;;;;;;6.27;5.07;;;14.30;99.90;;;;;;10520895;28;20621;-78
2023/10/28 18:30:34;;;;;;;8.30;4.77;;;14.20;99.90;;;;;;10502656;28;20753;-76
2023/10/28 18:35:57;;;;;;;11.80;9.47;;;14.20;99.90;;;;;;10525152;28;20570;-79
2023/10/28 18:41:21;;;;;;;7.43;6.83;;;14.10;99.90;;;;;;10513472;28;20220;-79
2023/10/28 18:46:43;;;;;;;8.13;6.00;;;14.10;99.90;;;;;;10515976;28;20196;-78
2023/10/28 18:52:11;;;;;;;8.70;6.73;;;14.00;99.90;;;;;;10521899;28;21003;-79
2023/10/28 18:57:34;;;;;;;9.30;6.33;;;14.00;99.90;;;;;;10508501;28;20187;-77
2023/10/28 19:02:57;;;;;;;10.13;4.80;;;14.00;99.90;;;;;;10531281;28;20589;-78
2023/10/28 19:08:19;;;;;;;7.70;6.70;;;14.00;99.90;;;;;;10520989;28;20729;-79
2023/10/28 19:13:42;;;;;;;10.00;7.20;;;14.00;99.90;;;;;;10509865;28;20254;-79
2023/10/28 19:19:08;;;;;;;10.13;7.40;;;14.00;99.90;;;;;;10533719;28;20209;-79
2023/10/28 19:24:31;;;;;;;8.43;7.23;;;14.00;99.90;;;;;;10528341;28;20727;-79
2023/10/28 19:29:55;;;;;;;9.57;7.07;;;13.90;99.90;;;;;;10533810;28;20224;-79
2023/10/28 19:35:17;;;;;;;8.33;7.10;;;13.80;99.90;;;;;;10526316;28;20205;-79
2023/10/28 19:40:39;;;;;;;6.90;5.97;;;13.80;99.90;;;;;;10535880;28;20282;-80
2023/10/28 19:46:06;;;;;;;7.70;5.10;;;13.70;99.90;;;;;;10524406;28;20752;-77
2023/10/28 19:51:28;;;;;;;5.00;4.57;;;13.70;99.90;;;;;;10523862;28;20232;-79
2023/10/28 19:56:50;;;;;;;7.03;4.57;;;13.70;99.90;;;;;;10519225;28;20200;-80
2023/10/28 20:02:14;;;;;;;4.67;4.27;;;13.80;99.90;;;;;;10522823;28;20284;-80
2023/10/28 20:07:36;;;;;;;4.40;4.10;;;13.80;99.90;;;;;;10521031;28;20506;-80
2023/10/28 20:12:59;;;;;;;5.10;4.60;;;13.80;99.90;;;;;;10525397;28;20235;-80
2023/10/28 20:18:22;;;;;;;6.00;4.30;;;13.80;99.90;;;;;;10516594;28;20196;-80
2023/10/28 20:23:44;;;;;;;4.40;4.10;;;13.80;99.90;;;;;;10536542;28;20697;-79
2023/10/28 20:29:07;;;;;;;4.87;4.30;;;13.80;99.90;;;;;;10532174;28;20236;-80
2023/10/28 20:34:31;;;;;;;4.63;4.13;;;13.90;99.90;;;;;;10531426;28;20228;-80
2023/10/28 20:39:53;;;;;;;4.93;4.30;;;13.90;99.90;;;;;;10531582;28;20646;-80
2023/10/28 20:45:20;;;;;;;4.77;4.33;;;13.90;99.90;;;;;;10522306;28;20204;-78
2023/10/28 20:50:44;;;;;;;4.27;3.97;;;14.00;99.90;;;;;;10544559;28;20244;-80
2023/10/28 20:56:07;;;;;;;8.73;4.87;;;14.00;99.90;;;;;;10531600;28;20228;-80
2023/10/28 21:01:29;;;;;;;4.80;4.47;;;14.10;99.90;;;;;;10536643;28;20216;-78
2023/10/28 21:06:53;;;;;;;6.63;5.13;;;14.10;99.90;;;;;;10538480;28;20197;-80
2023/10/28 21:12:15;;;;;;;5.67;4.87;;;14.20;99.90;;;;;;10530760;28;20227;-80
2023/10/28 21:17:37;;;;;;;5.10;4.60;;;14.20;99.90;;;;;;10536442;28;20200;-79
2023/10/28 21:23:01;;;;;;;5.97;4.10;;;14.20;99.90;;;;;;10541799;28;20224;-80
2023/10/28 21:28:23;;;;;;;4.93;4.40;;;14.20;99.90;;;;;;10519638;28;20195;-80
2023/10/28 21:33:46;;;;;;;5.90;4.63;;;14.30;99.90;;;;;;10538828;28;20213;-79
2023/10/28 21:39:10;;;;;;;6.57;4.30;;;14.30;99.90;;;;;;10525708;28;20207;-81
2023/10/28 21:44:32;;;;;;;14.13;12.80;;;14.30;99.90;;;;;;10526810;28;20234;-79
2023/10/28 21:49:54;;;;;;;4.20;3.90;;;14.30;99.90;;;;;;10534368;28;20223;-79
2023/10/28 21:55:18;;;;;;;6.03;4.03;;;14.30;99.90;;;;;;10527732;28;20196;-79
2023/10/28 22:00:42;;;;;;;4.50;3.27;;;14.20;99.90;;;;;;10533822;28;20215;-79
2023/10/28 22:06:05;;;;;;;3.60;3.30;;;14.20;99.90;;;;;;10541312;28;20206;-79
2023/10/28 22:11:29;;;;;;;5.40;3.20;;;14.20;99.90;;;;;;10532900;28;20747;-78
2023/10/28 22:16:52;;;;;;;5.50;3.20;;;14.20;99.90;;;;;;10524431;28;20212;-79
2023/10/28 22:22:14;;;;;;;3.50;3.20;;;14.20;99.90;;;;;;10516473;28;20306;-79
2023/10/28 22:27:38;;;;;;;4.30;3.40;;;14.20;99.90;;;;;;10520573;28;20196;-80
2023/10/28 22:33:00;;;;;;;3.13;2.77;;;14.20;99.90;;;;;;10527758;28;20275;-79
2023/10/28 22:38:22;;;;;;;5.17;3.10;;;14.20;99.90;;;;;;10519231;28;20199;-78
2023/10/28 22:43:46;;;;;;;3.80;3.37;;;14.20;99.90;;;;;;10574922;22;20230;-77
2023/10/28 22:49:08;;;;;;;3.50;3.30;;;14.20;99.90;;;;;;10565487;28;20242;-76
2023/10/28 22:54:30;;;;;;;5.13;3.40;;;14.10;99.90;;;;;;10523247;28;20310;-76
2023/10/28 22:59:54;;;;;;;3.33;2.97;;;14.10;99.90;;;;;;10523700;28;20373;-76
2023/10/28 23:05:16;;;;;;;3.70;3.20;;;14.10;99.90;;;;;;10515742;28;20566;-77
2023/10/28 23:10:38;;;;;;;4.90;3.63;;;14.10;99.90;;;;;;10521388;28;20233;-76
2023/10/28 23:16:04;;;;;;;4.87;3.90;;;14.10;99.90;;;;;;10516619;28;20696;-76
2023/10/28 23:21:26;;;;;;;4.20;3.80;;;14.10;99.90;;;;;;10525029;28;20208;-76
2023/10/28 23:26:49;;;;;;;7.67;4.30;;;14.10;99.90;;;;;;10529647;28;20195;-76
2023/10/28 23:32:12;;;;;;;5.30;4.03;;;14.10;99.90;;;;;;10502659;28;20741;-76
2023/10/28 23:37:34;;;;;;;4.17;3.77;;;14.00;99.90;;;;;;10503725;28;20212;-77
2023/10/28 23:42:57;;;;;;;4.17;3.77;;;14.00;99.90;;;;;;10506080;28;20227;-76
2023/10/28 23:48:20;;;;;;;4.10;3.67;;;13.90;99.90;;;;;;10512365;28;20193;-76
2023/10/28 23:53:42;;;;;;;5.00;3.13;;;13.90;99.90;;;;;;10517888;28;20240;-76
2023/10/28 23:59:05;;;;;;;3.90;2.90;;;13.80;99.90;;;;;;10515698;28;20192;-76
